Terminal Aerodrome Forecast
Issued by NWS Boston, MA

Home | Current Version | Previous Version | Text Only | Print | Product List | Glossary On
Versions: 1 2 3 4 5 6 7 8 9 10 11 12 13 14 15 16 17 18 19 20 21 22 23 24 25 26 27 28 29 30 31 32 33 34 35 36 37 38 39 40
000
FTUS41 KBOX 012327
TAFPVD
TAF
KPVD 012327Z 0200/0224 19004KT 1/2SM SN OVC009
     FM020600 25004KT 1 1/2SM -SN OVC008
     FM020800 26004KT 4SM -SN OVC025
     FM021000 26004KT P6SM OVC040
     FM021500 30013G24KT P6SM SCT090=

USA.gov is the U.S. government's official web portal to all federal, state and local government web resources and services.